Time,TemperatureF,DewpointF,PressureIn,WindDirection,WindDirectionDegrees,WindSpeedMPH,WindSpeedGustMPH,Humidity,HourlyPrecipIn,Conditions,Clouds,dailyrainin,SoftwareType,DateUTC
2013-01-19 00:01:00,10.6,-0.6,30.36,WNW,292,1.0,1.0,60,0.00,BKN,,0.00,WeatherDisplay:10.37,2013-01-19 05:01:00,
2013-01-19 00:02:00,10.6,-0.6,30.36,WNW,292,1.1,1.1,60,0.00,BKN,,0.00,WeatherDisplay:10.37,2013-01-19 05:02:00,
2013-01-19 00:03:00,10.4,-0.8,30.36,WNW,292,0.0,0.1,60,0.00,BKN,,0.00,WeatherDisplay:10.37,2013-01-19 05:03:00,
2013-01-19 00:08:00,11.1,-0.1,30.36,WNW,292,0.0,0.0,60,0.00,BKN,,0.00,WeatherDisplay:10.37,2013-01-19 05:08:00,
2013-01-19 00:13:00,11.5,-0.4,30.33,WNW,292,0.0,0.0,58,0.00,OVC,,0.00,WeatherDisplay:10.37,2013-01-19 05:13:00,
2013-01-19 00:18:00,11.9,-0.1,30.33,WNW,292,0.0,0.0,58,0.00,OVC,,0.00,WeatherDisplay:10.37,2013-01-19 05:18:00,
2013-01-19 00:23:00,12.3,0.3,30.33,WNW,292,0.0,0.0,58,0.00,OVC,,0.00,WeatherDisplay:10.37,2013-01-19 05:23:00,
2013-01-19 00:28:00,12.5,0.5,30.33,WNW,292,0.0,0.0,58,0.00,OVC,,0.00,WeatherDisplay:10.37,2013-01-19 05:28:00,
2013-01-19 00:33:00,12.7,0.7,30.33,WNW,292,0.0,0.0,58,0.00,OVC,,0.00,WeatherDisplay:10.37,2013-01-19 05:33:00,
2013-01-19 00:38:00,13.1,1.1,30.33,WNW,292,0.0,0.0,58,0.00,OVC,,0.00,WeatherDisplay:10.37,2013-01-19 05:38:00,
2013-01-19 00:43:00,13.4,1.4,30.33,WNW,292,0.0,0.0,58,0.00,OVC,,0.00,WeatherDisplay:10.37,2013-01-19 05:43:00,
2013-01-19 00:48:00,13.3,1.3,30.33,WNW,292,0.0,0.0,58,0.00,OVC,,0.00,WeatherDisplay:10.37,2013-01-19 05:48:00,
2013-01-19 00:53:00,13.5,1.4,30.33,WNW,292,0.0,0.0,58,0.00,OVC,,0.00,WeatherDisplay:10.37,2013-01-19 05:53:00,
2013-01-19 00:58:00,13.7,1.6,30.33,WNW,292,0.0,0.0,58,0.00,OVC,,0.00,WeatherDisplay:10.37,2013-01-19 05:58:00,
2013-01-19 01:03:00,13.3,1.3,30.33,WNW,292,0.0,0.0,58,0.00,OVC,,0.00,WeatherDisplay:10.37,2013-01-19 06:03:00,
2013-01-19 01:08:00,13.5,1.4,30.33,WNW,292,0.0,0.0,58,0.00,OVC,,0.00,WeatherDisplay:10.37,2013-01-19 06:08:00,
2013-01-19 01:13:00,13.7,0.5,30.31,WNW,292,0.0,0.0,55,0.00,OVC,,0.00,WeatherDisplay:10.37,2013-01-19 06:13:00,
2013-01-19 01:18:00,13.7,0.5,30.31,WNW,292,0.0,0.0,55,0.00,OVC,,0.00,WeatherDisplay:10.37,2013-01-19 06:18:00,
2013-01-19 01:23:00,14.1,0.9,30.31,WNW,292,0.0,0.0,55,0.00,OVC,,0.00,WeatherDisplay:10.37,2013-01-19 06:23:00,
2013-01-19 01:28:00,14.1,0.9,30.31,WNW,292,0.0,0.0,55,0.00,OVC,,0.00,WeatherDisplay:10.37,2013-01-19 06:28:00,
2013-01-19 01:33:00,14.1,0.9,30.31,WNW,292,0.0,0.0,55,0.00,OVC,,0.00,WeatherDisplay:10.37,2013-01-19 06:33:00,
2013-01-19 01:38:00,14.3,1.1,30.31,WNW,292,0.0,0.0,55,0.00,OVC,,0.00,WeatherDisplay:10.37,2013-01-19 06:38:00,
2013-01-19 01:43:00,14.5,1.2,30.31,WNW,292,0.0,0.0,55,0.00,OVC,,0.00,WeatherDisplay:10.37,2013-01-19 06:43:00,
2013-01-19 01:48:00,14.1,0.9,30.31,WNW,292,0.0,0.0,55,0.00,OVC,,0.00,WeatherDisplay:10.37,2013-01-19 06:48:00,
2013-01-19 01:53:00,14.4,1.2,30.31,WNW,292,0.0,0.0,55,0.00,OVC,,0.00,WeatherDisplay:10.37,2013-01-19 06:53:00,
2013-01-19 01:58:00,15.0,1.7,30.31,WNW,292,0.0,0.0,55,0.00,OVC,,0.00,WeatherDisplay:10.37,2013-01-19 06:58:00,
2013-01-19 02:03:00,14.8,1.5,30.31,WNW,292,0.0,0.0,55,0.00,OVC,,0.00,WeatherDisplay:10.37,2013-01-19 07:03:00,
2013-01-19 02:08:00,15.1,1.8,30.31,WNW,292,0.0,0.0,55,0.00,OVC,,0.00,WeatherDisplay:10.37,2013-01-19 07:08:00,
2013-01-19 02:13:00,15.0,2.1,30.29,WNW,292,0.0,0.1,56,0.00,OVC,,0.00,WeatherDisplay:10.37,2013-01-19 07:13:00,
2013-01-19 02:18:00,15.1,2.2,30.29,WNW,292,0.0,0.0,56,0.00,OVC,,0.00,WeatherDisplay:10.37,2013-01-19 07:18:00,
2013-01-19 02:23:00,15.1,2.2,30.29,WNW,292,0.0,0.0,56,0.00,OVC,,0.00,WeatherDisplay:10.37,2013-01-19 07:23:00,
2013-01-19 02:28:00,14.9,2.0,30.29,WNW,292,0.0,0.0,56,0.00,OVC,,0.00,WeatherDisplay:10.37,2013-01-19 07:28:00,
2013-01-19 02:33:00,14.7,1.8,30.29,WNW,292,0.0,0.0,56,0.00,OVC,,0.00,WeatherDisplay:10.37,2013-01-19 07:33:00,
2013-01-19 02:38:00,15.0,2.1,30.29,WNW,292,0.0,0.0,56,0.00,OVC,,0.00,WeatherDisplay:10.37,2013-01-19 07:38:00,
2013-01-19 02:43:00,14.9,2.0,30.29,WNW,292,0.0,0.0,56,0.00,OVC,,0.00,WeatherDisplay:10.37,2013-01-19 07:43:00,
2013-01-19 02:48:00,15.4,2.5,30.29,WNW,292,0.0,0.0,56,0.00,OVC,,0.00,WeatherDisplay:10.37,2013-01-19 07:48:00,
2013-01-19 02:53:00,15.7,2.8,30.29,WNW,292,0.0,0.0,56,0.00,OVC,,0.00,WeatherDisplay:10.37,2013-01-19 07:53:00,
2013-01-19 02:58:00,15.6,2.7,30.29,WNW,292,1.1,0.0,56,0.00,OVC,,0.00,WeatherDisplay:10.37,2013-01-19 07:58:00,
2013-01-19 03:03:00,15.4,2.5,30.29,WNW,292,0.0,0.0,56,0.00,OVC,,0.00,WeatherDisplay:10.37,2013-01-19 08:03:00,
2013-01-19 03:08:00,15.8,2.9,30.29,WNW,292,0.0,0.0,56,0.00,OVC,,0.00,WeatherDisplay:10.37,2013-01-19 08:08:00,
2013-01-19 03:13:00,15.5,3.3,30.25,WNW,292,0.0,0.0,58,0.00,OVC,,0.00,WeatherDisplay:10.37,2013-01-19 08:13:00,
2013-01-19 03:18:00,15.8,3.6,30.25,WNW,292,0.0,0.0,58,0.00,OVC,,0.00,WeatherDisplay:10.37,2013-01-19 08:18:00,
2013-01-19 03:23:00,16.0,3.8,30.25,WNW,292,0.0,0.0,58,0.00,OVC,,0.00,WeatherDisplay:10.37,2013-01-19 08:23:00,
2013-01-19 03:28:00,16.1,3.9,30.25,WNW,292,0.0,0.0,58,0.00,OVC,,0.00,WeatherDisplay:10.37,2013-01-19 08:28:00,
2013-01-19 03:33:00,16.2,4.0,30.25,WNW,292,0.0,0.0,58,0.00,OVC,,0.00,WeatherDisplay:10.37,2013-01-19 08:33:00,
2013-01-19 03:38:00,16.2,4.0,30.25,WNW,292,0.0,0.0,58,0.00,OVC,,0.00,WeatherDisplay:10.37,2013-01-19 08:38:00,
2013-01-19 03:43:00,16.1,3.9,30.25,WNW,292,0.0,0.0,58,0.00,OVC,,0.00,WeatherDisplay:10.37,2013-01-19 08:43:00,
2013-01-19 03:48:00,15.7,3.5,30.25,WNW,292,0.0,0.0,58,0.00,OVC,,0.00,WeatherDisplay:10.37,2013-01-19 08:48:00,
2013-01-19 03:53:00,15.5,3.3,30.25,WNW,292,0.0,0.0,58,0.00,OVC,,0.00,WeatherDisplay:10.37,2013-01-19 08:53:00,
2013-01-19 03:58:00,15.8,3.6,30.25,WNW,292,0.0,0.0,58,0.00,OVC,,0.00,WeatherDisplay:10.37,2013-01-19 08:58:00,
2013-01-19 04:03:00,15.8,3.6,30.25,WNW,292,0.0,0.0,58,0.00,OVC,,0.00,WeatherDisplay:10.37,2013-01-19 09:03:00,
2013-01-19 04:08:00,15.6,3.4,30.25,WNW,292,0.0,0.0,58,0.00,OVC,,0.00,WeatherDisplay:10.37,2013-01-19 09:08:00,
2013-01-19 04:13:00,15.8,2.9,30.22,WNW,292,0.0,0.0,56,0.00,OVC,,0.00,WeatherDisplay:10.37,2013-01-19 09:13:00,
2013-01-19 04:18:00,15.8,2.9,30.22,WNW,292,0.0,0.0,56,0.00,OVC,,0.00,WeatherDisplay:10.37,2013-01-19 09:18:00,
2013-01-19 04:23:00,16.1,3.1,30.22,WNW,292,0.0,0.0,56,0.00,OVC,,0.00,WeatherDisplay:10.37,2013-01-19 09:23:00,
2013-01-19 04:28:00,16.0,3.0,30.22,WNW,292,0.0,0.0,56,0.00,OVC,,0.00,WeatherDisplay:10.37,2013-01-19 09:28:00,
2013-01-19 04:33:00,16.0,3.0,30.22,WNW,292,0.0,0.0,56,0.00,OVC,,0.00,WeatherDisplay:10.37,2013-01-19 09:33:00,
2013-01-19 04:38:00,16.4,3.4,30.22,WNW,292,0.0,0.0,56,0.00,OVC,,0.00,WeatherDisplay:10.37,2013-01-19 09:38:00,
2013-01-19 04:43:00,16.7,3.7,30.22,WNW,292,0.0,0.0,56,0.00,OVC,,0.00,WeatherDisplay:10.37,2013-01-19 09:43:00,
2013-01-19 04:48:00,16.3,3.3,30.22,WNW,292,0.0,0.0,56,0.00,OVC,,0.00,WeatherDisplay:10.37,2013-01-19 09:48:00,
2013-01-19 04:53:00,16.6,3.6,30.22,WNW,292,0.0,0.0,56,0.00,OVC,,0.00,WeatherDisplay:10.37,2013-01-19 09:53:00,
2013-01-19 04:58:00,16.7,3.7,30.22,WNW,292,0.0,0.0,56,0.00,OVC,,0.00,WeatherDisplay:10.37,2013-01-19 09:58:00,
2013-01-19 05:03:00,16.8,3.8,30.18,WNW,292,0.0,0.0,56,0.00,OVC,,0.00,WeatherDisplay:10.37,2013-01-19 10:03:00,
2013-01-19 05:08:00,16.8,3.8,30.18,WNW,292,0.0,0.0,56,0.00,OVC,,0.00,WeatherDisplay:10.37,2013-01-19 10:08:00,
2013-01-19 05:13:00,16.9,3.9,30.18,WNW,292,0.0,0.0,56,0.00,OVC,,0.00,WeatherDisplay:10.37,2013-01-19 10:13:00,
2013-01-19 05:19:00,16.9,3.9,30.18,WNW,292,0.0,0.0,56,0.00,OVC,,0.00,WeatherDisplay:10.37,2013-01-19 10:19:00,
2013-01-19 05:24:00,16.9,3.9,30.18,WNW,292,0.0,0.0,56,0.00,OVC,,0.00,WeatherDisplay:10.37,2013-01-19 10:24:00,
2013-01-19 05:29:00,16.9,3.9,30.18,WNW,292,0.0,0.0,56,0.00,OVC,,0.00,WeatherDisplay:10.37,2013-01-19 10:29:00,
2013-01-19 05:34:00,16.7,3.7,30.18,WNW,292,0.0,0.0,56,0.00,OVC,,0.00,WeatherDisplay:10.37,2013-01-19 10:34:00,
2013-01-19 05:39:00,16.7,3.7,30.18,WNW,292,0.0,0.0,56,0.00,OVC,,0.00,WeatherDisplay:10.37,2013-01-19 10:39:00,
2013-01-19 05:44:00,16.9,3.9,30.18,WNW,292,0.0,0.0,56,0.00,OVC,,0.00,WeatherDisplay:10.37,2013-01-19 10:44:00,
2013-01-19 05:49:00,16.7,3.7,30.18,WNW,292,0.0,0.0,56,0.00,OVC,,0.00,WeatherDisplay:10.37,2013-01-19 10:49:00,
2013-01-19 05:54:00,16.7,3.7,30.18,WNW,292,0.0,0.0,56,0.00,OVC,,0.00,WeatherDisplay:10.37,2013-01-19 10:54:00,
2013-01-19 05:59:00,16.7,3.7,30.18,WNW,292,0.0,0.0,56,0.00,OVC,,0.00,WeatherDisplay:10.37,2013-01-19 10:59:00,
2013-01-19 06:04:00,16.7,3.7,30.15,WNW,292,0.0,0.0,56,0.00,CLR,,0.00,WeatherDisplay:10.37,2013-01-19 11:04:00,
2013-01-19 06:09:00,16.7,3.7,30.15,WNW,292,0.0,0.0,56,0.00,CLR,,0.00,WeatherDisplay:10.37,2013-01-19 11:09:00,
2013-01-19 06:14:00,16.8,3.8,30.15,WNW,292,0.0,0.0,56,0.00,CLR,,0.00,WeatherDisplay:10.37,2013-01-19 11:14:00,
2013-01-19 07:48:00,17.7,6.9,30.14,WNW,292,0.0,0.0,62,0.00,BKN,,0.00,WeatherDisplay:10.37,2013-01-19 12:48:00,
2013-01-19 07:49:00,17.7,6.9,30.14,WNW,292,0.0,0.0,62,0.00,BKN,,0.00,WeatherDisplay:10.37,2013-01-19 12:49:00,
2013-01-19 07:54:00,17.5,6.7,30.14,WNW,292,0.0,0.0,62,0.00,BKN,,0.00,WeatherDisplay:10.37,2013-01-19 12:54:00,
2013-01-19 07:59:00,18.0,7.2,30.14,WNW,292,0.0,0.0,62,0.00,BKN,,0.00,WeatherDisplay:10.37,2013-01-19 12:59:00,
2013-01-19 08:04:00,17.5,6.3,30.13,WNW,292,0.0,0.0,61,0.00,OVC,,0.00,WeatherDisplay:10.37,2013-01-19 13:04:00,
2013-01-19 08:09:00,17.6,6.4,30.13,WNW,292,0.0,0.0,61,0.00,OVC,,0.00,WeatherDisplay:10.37,2013-01-19 13:09:00,
2013-01-19 08:14:00,17.4,6.2,30.13,WNW,292,0.0,0.0,61,0.00,OVC,,0.00,WeatherDisplay:10.37,2013-01-19 13:14:00,
2013-01-19 08:19:00,17.7,6.5,30.13,WNW,292,0.0,0.0,61,0.00,OVC,,0.00,WeatherDisplay:10.37,2013-01-19 13:19:00,
2013-01-19 08:24:00,17.8,6.6,30.13,WNW,292,0.0,0.0,61,0.00,OVC,,0.00,WeatherDisplay:10.37,2013-01-19 13:24:00,
2013-01-19 08:29:00,18.1,6.9,30.13,WNW,292,0.0,0.0,61,0.00,OVC,,0.00,WeatherDisplay:10.37,2013-01-19 13:29:00,
2013-01-19 08:34:00,18.7,7.5,30.13,WNW,292,0.0,0.0,61,0.00,OVC,,0.00,WeatherDisplay:10.37,2013-01-19 13:34:00,
2013-01-19 08:39:00,18.3,7.1,30.13,WNW,292,0.0,0.0,61,0.00,OVC,,0.00,WeatherDisplay:10.37,2013-01-19 13:39:00,
2013-01-19 08:44:00,18.3,7.1,30.13,WNW,292,0.0,0.0,61,0.00,OVC,,0.00,WeatherDisplay:10.37,2013-01-19 13:44:00,
2013-01-19 08:49:00,18.7,7.5,30.13,WNW,292,0.0,0.0,61,0.00,OVC,,0.00,WeatherDisplay:10.37,2013-01-19 13:49:00,
2013-01-19 08:54:00,18.9,7.7,30.13,WNW,292,0.0,0.0,61,0.00,OVC,,0.00,WeatherDisplay:10.37,2013-01-19 13:54:00,
2013-01-19 08:59:00,19.0,7.7,30.13,WNW,292,0.0,0.0,61,0.00,OVC,,0.00,WeatherDisplay:10.37,2013-01-19 13:59:00,
2013-01-19 09:04:00,18.9,8.0,30.11,WNW,292,0.0,0.0,62,0.00,FEW,,0.00,WeatherDisplay:10.37,2013-01-19 14:04:00,
2013-01-19 09:09:00,19.3,8.4,30.11,WNW,292,0.0,0.0,62,0.00,FEW,,0.00,WeatherDisplay:10.37,2013-01-19 14:09:00,
2013-01-19 09:14:00,19.6,8.7,30.11,WNW,292,0.0,0.0,62,0.00,FEW,,0.00,WeatherDisplay:10.37,2013-01-19 14:14:00,
2013-01-19 09:19:00,20.0,9.1,30.11,WNW,292,0.0,0.0,62,0.00,FEW,,0.00,WeatherDisplay:10.37,2013-01-19 14:19:00,
2013-01-19 09:24:00,19.6,8.7,30.11,WNW,292,1.1,0.0,62,0.00,FEW,,0.00,WeatherDisplay:10.37,2013-01-19 14:24:00,
2013-01-19 09:29:00,20.4,9.4,30.11,WNW,292,0.0,0.0,62,0.00,FEW,,0.00,WeatherDisplay:10.37,2013-01-19 14:29:00,
2013-01-19 09:34:00,20.0,9.1,30.11,WNW,292,0.0,0.0,62,0.00,FEW,,0.00,WeatherDisplay:10.37,2013-01-19 14:34:00,
2013-01-19 09:39:00,20.8,9.8,30.11,WNW,292,0.0,0.0,62,0.00,FEW,,0.00,WeatherDisplay:10.37,2013-01-19 14:39:00,
2013-01-19 09:44:00,21.4,10.4,30.11,WNW,292,0.0,0.0,62,0.00,FEW,,0.00,WeatherDisplay:10.37,2013-01-19 14:44:00,
2013-01-19 09:49:00,21.7,10.7,30.11,WNW,292,0.0,0.0,62,0.00,FEW,,0.00,WeatherDisplay:10.37,2013-01-19 14:49:00,
2013-01-19 09:54:00,21.6,10.6,30.11,WNW,292,0.0,0.0,62,0.00,FEW,,0.00,WeatherDisplay:10.37,2013-01-19 14:54:00,
2013-01-19 09:59:00,21.3,10.3,30.11,WNW,292,0.0,0.0,62,0.00,FEW,,0.00,WeatherDisplay:10.37,2013-01-19 14:59:00,
2013-01-19 10:04:00,22.3,9.7,30.10,WNW,292,0.0,0.0,58,0.00,FEW,,0.00,WeatherDisplay:10.37,2013-01-19 15:04:00,
2013-01-19 10:09:00,21.8,9.3,30.10,WNW,292,0.0,0.0,58,0.00,FEW,,0.00,WeatherDisplay:10.37,2013-01-19 15:09:00,
2013-01-19 10:14:00,22.1,9.6,30.10,WNW,292,0.0,0.0,58,0.00,FEW,,0.00,WeatherDisplay:10.37,2013-01-19 15:14:00,
2013-01-19 10:19:00,22.3,9.7,30.10,WNW,292,0.0,0.0,58,0.00,FEW,,0.00,WeatherDisplay:10.37,2013-01-19 15:19:00,
2013-01-19 10:24:00,22.9,10.3,30.10,WNW,292,0.0,0.0,58,0.00,FEW,,0.00,WeatherDisplay:10.37,2013-01-19 15:24:00,
2013-01-19 10:29:00,23.1,10.5,30.10,WNW,292,1.1,0.0,58,0.00,FEW,,0.00,WeatherDisplay:10.37,2013-01-19 15:29:00,
2013-01-19 10:34:00,23.6,11.0,30.10,WNW,292,0.0,0.0,58,0.00,FEW,,0.00,WeatherDisplay:10.37,2013-01-19 15:34:00,
2013-01-19 10:39:00,24.4,11.7,30.10,WNW,292,0.0,0.0,58,0.00,FEW,,0.00,WeatherDisplay:10.37,2013-01-19 15:39:00,
2013-01-19 10:44:00,24.4,11.7,30.10,WNW,292,0.0,0.0,58,0.00,FEW,,0.00,WeatherDisplay:10.37,2013-01-19 15:44:00,
2013-01-19 10:49:00,24.8,12.1,30.10,WNW,292,0.0,0.0,58,0.00,FEW,,0.00,WeatherDisplay:10.37,2013-01-19 15:49:00,
2013-01-19 10:54:00,25.0,12.3,30.10,WNW,292,0.0,0.0,58,0.00,FEW,,0.00,WeatherDisplay:10.37,2013-01-19 15:54:00,
2013-01-19 10:59:00,25.4,12.7,30.10,WNW,292,0.0,0.0,58,0.00,FEW,,0.00,WeatherDisplay:10.37,2013-01-19 15:59:00,
2013-01-19 11:04:00,25.5,9.9,30.07,WNW,292,0.0,0.0,51,0.00,CLR,,0.00,WeatherDisplay:10.37,2013-01-19 16:04:00,
2013-01-19 11:09:00,26.0,10.3,30.07,WNW,292,0.0,0.0,51,0.00,CLR,,0.00,WeatherDisplay:10.37,2013-01-19 16:09:00,
2013-01-19 11:14:00,26.9,11.2,30.07,WNW,292,0.0,0.0,51,0.00,CLR,,0.00,WeatherDisplay:10.37,2013-01-19 16:14:00,
2013-01-19 11:19:00,28.4,12.6,30.07,WNW,292,1.1,0.0,51,0.00,CLR,,0.00,WeatherDisplay:10.37,2013-01-19 16:19:00,
2013-01-19 11:24:00,29.6,13.7,30.07,WNW,292,0.0,0.0,51,0.00,CLR,,0.00,WeatherDisplay:10.37,2013-01-19 16:24:00,
2013-01-19 11:29:00,30.2,14.2,30.07,WNW,292,0.0,0.0,51,0.00,CLR,,0.00,WeatherDisplay:10.37,2013-01-19 16:29:00,
2013-01-19 11:34:00,30.7,14.7,30.07,WNW,292,0.0,0.0,51,0.00,CLR,,0.00,WeatherDisplay:10.37,2013-01-19 16:34:00,
2013-01-19 11:39:00,30.8,14.8,30.07,SSW,208,2.3,2.3,51,0.00,CLR,,0.00,WeatherDisplay:10.37,2013-01-19 16:39:00,
2013-01-19 11:44:00,31.3,15.2,30.07,SE,145,0.0,0.0,51,0.00,CLR,,0.00,WeatherDisplay:10.37,2013-01-19 16:44:00,
2013-01-19 11:49:00,31.4,15.3,30.07,SE,145,0.0,0.0,51,0.00,CLR,,0.00,WeatherDisplay:10.37,2013-01-19 16:49:00,
2013-01-19 11:54:00,31.8,15.7,30.07,SE,145,0.0,0.0,51,0.00,CLR,,0.00,WeatherDisplay:10.37,2013-01-19 16:54:00,
2013-01-19 11:59:00,31.7,15.6,30.07,SE,145,0.0,0.0,51,0.00,CLR,,0.00,WeatherDisplay:10.37,2013-01-19 16:59:00,
2013-01-19 12:04:00,32.3,13.8,30.01,SSE,159,0.0,0.0,46,0.00,CLR,,0.00,WeatherDisplay:10.37,2013-01-19 17:04:00,
2013-01-19 12:09:00,32.4,13.9,30.01,SSE,159,0.0,0.0,46,0.00,CLR,,0.00,WeatherDisplay:10.37,2013-01-19 17:09:00,
2013-01-19 12:14:00,32.5,14.0,30.01,SSE,159,0.0,0.0,46,0.00,CLR,,0.00,WeatherDisplay:10.37,2013-01-19 17:14:00,
2013-01-19 12:20:00,32.8,14.2,30.01,SSE,159,0.0,0.0,46,0.00,CLR,,0.00,WeatherDisplay:10.37,2013-01-19 17:20:00,
2013-01-19 12:25:00,33.4,14.8,30.01,SSE,159,0.0,1.0,46,0.00,CLR,,0.00,WeatherDisplay:10.37,2013-01-19 17:25:00,
2013-01-19 12:30:00,33.9,15.3,30.01,SSE,159,0.0,0.0,46,0.00,CLR,,0.00,WeatherDisplay:10.37,2013-01-19 17:30:00,
2013-01-19 12:35:00,33.5,14.9,30.01,SSE,159,0.0,0.0,46,0.00,CLR,,0.00,WeatherDisplay:10.37,2013-01-19 17:35:00,
2013-01-19 12:40:00,33.9,15.3,30.01,SSE,159,0.0,0.0,46,0.00,CLR,,0.00,WeatherDisplay:10.37,2013-01-19 17:40:00,
2013-01-19 12:45:00,34.5,15.8,30.01,SSE,159,0.0,0.0,46,0.00,CLR,,0.00,WeatherDisplay:10.37,2013-01-19 17:45:00,
2013-01-19 12:50:00,34.8,16.1,30.01,SSE,159,0.0,0.0,46,0.00,CLR,,0.00,WeatherDisplay:10.37,2013-01-19 17:50:00,
2013-01-19 12:55:00,34.8,16.1,30.01,SSE,159,0.0,0.0,46,0.00,CLR,,0.00,WeatherDisplay:10.37,2013-01-19 17:55:00,
2013-01-19 13:00:00,34.6,15.9,30.01,SSE,159,0.0,0.0,46,0.00,CLR,,0.00,WeatherDisplay:10.37,2013-01-19 18:00:00,
2013-01-19 13:07:00,34.3,13.6,29.97,SSE,159,0.0,0.0,42,0.00,CLR,,0.00,WeatherDisplay:10.37,2013-01-19 18:07:00,
2013-01-19 13:12:00,34.6,13.8,29.97,SSE,159,0.0,0.0,42,0.00,CLR,,0.00,WeatherDisplay:10.37,2013-01-19 18:12:00,
2013-01-19 13:17:00,34.8,14.0,29.97,SSE,159,0.0,0.0,42,0.01,RA,,0.01,WeatherDisplay:10.37,2013-01-19 18:17:00,
2013-01-19 13:23:00,35.3,14.5,29.97,SSE,159,0.0,0.0,42,0.01,CLR,,0.01,WeatherDisplay:10.37,2013-01-19 18:23:00,
2013-01-19 13:28:00,35.5,14.6,29.97,SSE,159,0.0,0.0,42,0.01,CLR,,0.01,WeatherDisplay:10.37,2013-01-19 18:28:00,
2013-01-19 13:33:00,35.8,14.9,29.97,SSE,159,0.0,0.0,42,0.01,CLR,,0.01,WeatherDisplay:10.37,2013-01-19 18:33:00,
2013-01-19 13:38:00,35.8,14.9,29.97,SSE,159,0.0,0.0,42,0.01,CLR,,0.01,WeatherDisplay:10.37,2013-01-19 18:38:00,
2013-01-19 13:43:00,36.2,15.3,29.97,SSE,159,0.0,0.0,42,0.01,CLR,,0.01,WeatherDisplay:10.37,2013-01-19 18:43:00,
2013-01-19 13:48:00,36.0,15.1,29.97,SSE,159,0.0,0.0,42,0.01,CLR,,0.01,WeatherDisplay:10.37,2013-01-19 18:48:00,
2013-01-19 13:53:00,36.2,15.3,29.97,SSE,160,1.1,0.0,42,0.02,RA,,0.02,WeatherDisplay:10.37,2013-01-19 18:53:00,
2013-01-19 13:58:00,36.0,15.1,29.97,SSE,160,0.0,0.0,42,0.02,CLR,,0.02,WeatherDisplay:10.37,2013-01-19 18:58:00,
2013-01-19 14:04:00,36.3,15.4,29.95,SSE,160,0.0,0.0,42,0.02,CLR,,0.02,WeatherDisplay:10.37,2013-01-19 19:04:00,
2013-01-19 14:09:00,36.3,15.4,29.95,SSE,160,0.0,0.0,42,0.00,CLR,,0.02,WeatherDisplay:10.37,2013-01-19 19:09:00,
2013-01-19 14:14:00,36.6,15.6,29.95,SSE,160,0.0,0.0,42,0.00,CLR,,0.02,WeatherDisplay:10.37,2013-01-19 19:14:00,
2013-01-19 14:19:00,36.5,15.6,29.95,SSE,160,0.0,0.0,42,0.01,CLR,,0.02,WeatherDisplay:10.37,2013-01-19 19:19:00,
2013-01-19 14:24:00,36.3,15.4,29.95,SSE,160,0.0,0.0,42,0.00,CLR,,0.02,WeatherDisplay:10.37,2013-01-19 19:24:00,
2013-01-19 14:29:00,36.1,15.2,29.95,SSE,160,0.0,0.0,42,0.01,CLR,,0.02,WeatherDisplay:10.37,2013-01-19 19:29:00,
2013-01-19 14:35:00,36.4,15.5,29.95,SSE,160,0.0,0.0,42,0.01,CLR,,0.02,WeatherDisplay:10.37,2013-01-19 19:35:00,
2013-01-19 14:41:00,36.5,15.6,29.95,SSE,160,0.0,0.0,42,0.01,CLR,,0.02,WeatherDisplay:10.37,2013-01-19 19:41:00,
2013-01-19 14:47:00,36.9,15.9,29.95,SSE,160,0.0,0.0,42,0.01,CLR,,0.02,WeatherDisplay:10.37,2013-01-19 19:47:00,
2013-01-19 14:53:00,37.1,16.1,29.95,SSE,160,1.1,0.0,42,0.01,CLR,,0.02,WeatherDisplay:10.37,2013-01-19 19:53:00,
2013-01-19 14:58:00,36.6,15.6,29.95,SSE,160,0.0,0.0,42,0.00,CLR,,0.02,WeatherDisplay:10.37,2013-01-19 19:58:00,
2013-01-19 15:03:00,36.7,15.7,29.96,SSE,160,0.0,0.0,42,0.00,CLR,,0.02,WeatherDisplay:10.37,2013-01-19 20:03:00,
2013-01-19 15:09:00,37.1,16.1,29.96,SSE,160,0.0,0.0,42,0.00,CLR,,0.02,WeatherDisplay:10.37,2013-01-19 20:09:00,
2013-01-19 15:14:00,37.0,16.0,29.96,SSE,160,0.0,0.0,42,0.00,CLR,,0.02,WeatherDisplay:10.37,2013-01-19 20:14:00,
2013-01-19 15:19:00,37.3,16.3,29.96,SSE,160,0.0,0.0,42,0.00,CLR,,0.02,WeatherDisplay:10.37,2013-01-19 20:19:00,
2013-01-19 15:24:00,36.9,15.9,29.96,SSE,160,0.0,0.0,42,0.00,CLR,,0.02,WeatherDisplay:10.37,2013-01-19 20:24:00,
2013-01-19 15:29:00,36.5,15.6,29.96,SSE,160,0.0,0.0,42,0.00,CLR,,0.02,WeatherDisplay:10.37,2013-01-19 20:29:00,
2013-01-19 15:34:00,36.8,15.8,29.96,West,272,2.3,0.0,42,0.00,CLR,,0.02,WeatherDisplay:10.37,2013-01-19 20:34:00,
2013-01-19 15:39:00,36.4,15.4,29.96,WSW,240,0.0,0.0,42,0.00,CLR,,0.02,WeatherDisplay:10.37,2013-01-19 20:39:00,
2013-01-19 15:44:00,36.3,15.4,29.96,West,272,0.0,0.0,42,0.00,CLR,,0.02,WeatherDisplay:10.37,2013-01-19 20:44:00,
2013-01-19 15:50:00,36.3,15.4,29.96,West,272,0.0,0.0,42,0.00,CLR,,0.02,WeatherDisplay:10.37,2013-01-19 20:50:00,
2013-01-19 15:55:00,36.1,15.2,29.96,West,272,0.0,0.0,42,0.00,CLR,,0.02,WeatherDisplay:10.37,2013-01-19 20:55:00,
2013-01-19 16:00:00,36.2,15.3,29.96,West,272,0.0,0.0,42,0.00,CLR,,0.02,WeatherDisplay:10.37,2013-01-19 21:00:00,
2013-01-19 16:05:00,36.1,16.3,29.95,West,272,0.0,0.0,44,0.00,CLR,,0.02,WeatherDisplay:10.37,2013-01-19 21:05:00,
2013-01-19 16:10:00,35.9,16.1,29.95,West,272,0.0,0.0,44,0.00,CLR,,0.02,WeatherDisplay:10.37,2013-01-19 21:10:00,
2013-01-19 16:16:00,35.7,15.9,29.95,West,272,0.0,0.0,44,0.00,CLR,,0.02,WeatherDisplay:10.37,2013-01-19 21:16:00,
2013-01-19 16:22:00,35.7,15.9,29.95,West,271,0.0,0.0,44,0.00,CLR,,0.02,WeatherDisplay:10.37,2013-01-19 21:22:00,
2013-01-19 16:27:00,35.5,15.7,29.95,West,272,0.0,0.0,44,0.00,CLR,,0.02,WeatherDisplay:10.37,2013-01-19 21:27:00,
2013-01-19 16:32:00,35.3,15.5,29.95,West,272,0.0,0.0,44,0.00,CLR,,0.02,WeatherDisplay:10.37,2013-01-19 21:32:00,
2013-01-19 16:37:00,35.4,15.6,29.95,West,272,0.0,0.0,44,0.00,CLR,,0.02,WeatherDisplay:10.37,2013-01-19 21:37:00,
2013-01-19 16:42:00,35.3,15.5,29.95,West,272,0.0,0.0,44,0.00,CLR,,0.02,WeatherDisplay:10.37,2013-01-19 21:42:00,
2013-01-19 16:47:00,35.2,15.4,29.95,West,272,0.0,0.0,44,0.00,CLR,,0.02,WeatherDisplay:10.37,2013-01-19 21:47:00,
2013-01-19 16:53:00,35.2,15.4,29.95,West,272,0.0,0.0,44,0.00,CLR,,0.02,WeatherDisplay:10.37,2013-01-19 21:53:00,
2013-01-19 16:58:00,35.0,15.3,29.95,West,272,0.0,0.0,44,0.00,CLR,,0.02,WeatherDisplay:10.37,2013-01-19 21:58:00,
2013-01-19 17:03:00,34.8,16.1,29.95,West,272,0.0,0.0,46,0.00,OVC,,0.02,WeatherDisplay:10.37,2013-01-19 22:03:00,
2013-01-19 17:08:00,34.8,16.1,29.95,West,272,0.0,0.0,46,0.00,OVC,,0.02,WeatherDisplay:10.37,2013-01-19 22:08:00,
2013-01-19 17:13:00,34.8,16.1,29.95,West,272,0.0,0.0,46,0.00,OVC,,0.02,WeatherDisplay:10.37,2013-01-19 22:13:00,
2013-01-19 17:18:00,34.3,15.6,29.95,West,272,0.0,0.0,46,0.00,OVC,,0.02,WeatherDisplay:10.37,2013-01-19 22:18:00,
2013-01-19 17:23:00,34.2,15.5,29.95,West,272,0.0,0.0,46,0.00,OVC,,0.02,WeatherDisplay:10.37,2013-01-19 22:23:00,
2013-01-19 17:29:00,34.6,15.9,29.95,West,272,0.0,0.0,46,0.00,OVC,,0.02,WeatherDisplay:10.37,2013-01-19 22:29:00,
2013-01-19 17:34:00,34.4,15.7,29.95,West,272,0.0,0.0,46,0.00,OVC,,0.02,WeatherDisplay:10.37,2013-01-19 22:34:00,
2013-01-19 17:39:00,34.1,15.5,29.95,West,272,0.0,0.0,46,0.00,OVC,,0.02,WeatherDisplay:10.37,2013-01-19 22:39:00,
2013-01-19 17:44:00,33.9,15.3,29.95,West,272,0.0,0.0,46,0.00,OVC,,0.02,WeatherDisplay:10.37,2013-01-19 22:44:00,
2013-01-19 17:49:00,33.7,15.1,29.95,West,272,0.0,0.0,46,0.00,OVC,,0.02,WeatherDisplay:10.37,2013-01-19 22:49:00,
2013-01-19 17:54:00,33.9,15.3,29.95,West,272,0.0,0.0,46,0.00,OVC,,0.02,WeatherDisplay:10.37,2013-01-19 22:54:00,
2013-01-19 17:59:00,34.3,15.6,29.95,West,272,0.0,0.0,46,0.00,OVC,,0.02,WeatherDisplay:10.37,2013-01-19 22:59:00,
2013-01-19 18:05:00,34.2,20.9,29.96,West,272,0.0,0.0,58,0.00,BKN,,0.02,WeatherDisplay:10.37,2013-01-19 23:05:00,
2013-01-19 18:10:00,34.5,21.2,29.96,West,272,0.0,0.0,58,0.00,BKN,,0.02,WeatherDisplay:10.37,2013-01-19 23:10:00,
2013-01-19 18:15:00,34.9,21.6,29.96,West,272,0.0,0.0,58,0.00,BKN,,0.02,WeatherDisplay:10.37,2013-01-19 23:15:00,
2013-01-19 18:20:00,35.2,21.9,29.96,West,272,0.0,0.0,58,0.00,BKN,,0.02,WeatherDisplay:10.37,2013-01-19 23:20:00,
2013-01-19 18:25:00,35.4,22.1,29.96,West,272,0.0,0.0,58,0.00,BKN,,0.02,WeatherDisplay:10.37,2013-01-19 23:25:00,
2013-01-19 18:30:00,35.2,21.9,29.96,West,272,0.0,0.0,58,0.00,BKN,,0.02,WeatherDisplay:10.37,2013-01-19 23:30:00,
2013-01-19 18:35:00,35.2,21.9,29.96,West,272,0.0,0.0,58,0.00,BKN,,0.02,WeatherDisplay:10.37,2013-01-19 23:35:00,
2013-01-19 18:40:00,34.9,21.6,29.96,West,272,0.0,0.0,58,0.00,BKN,,0.02,WeatherDisplay:10.37,2013-01-19 23:40:00,
2013-01-19 18:45:00,34.8,21.5,29.96,West,272,0.0,0.0,58,0.00,BKN,,0.02,WeatherDisplay:10.37,2013-01-19 23:45:00,
2013-01-19 18:50:00,34.6,21.3,29.96,West,272,0.0,0.0,58,0.00,BKN,,0.02,WeatherDisplay:10.37,2013-01-19 23:50:00,
2013-01-19 18:55:00,34.6,21.3,29.96,West,272,0.0,0.0,58,0.00,BKN,,0.02,WeatherDisplay:10.37,2013-01-19 23:55:00,
2013-01-19 19:00:00,33.3,19.3,29.95,West,272,0.0,0.0,56,0.00,CLR,,0.02,WeatherDisplay:10.37,2013-01-20 00:00:00,
2013-01-19 19:06:00,33.4,19.4,29.95,West,272,0.0,0.0,56,0.00,CLR,,0.02,WeatherDisplay:10.37,2013-01-20 00:06:00,
2013-01-19 19:11:00,33.3,19.3,29.95,West,272,0.0,0.0,56,0.00,CLR,,0.02,WeatherDisplay:10.37,2013-01-20 00:11:00,
2013-01-19 19:17:00,33.0,19.0,29.95,West,272,0.0,0.0,56,0.00,CLR,,0.02,WeatherDisplay:10.37,2013-01-20 00:17:00,
2013-01-19 19:22:00,32.6,18.6,29.95,West,272,0.0,0.0,56,0.00,CLR,,0.02,WeatherDisplay:10.37,2013-01-20 00:22:00,
2013-01-19 19:27:00,32.6,18.6,29.95,West,272,0.0,0.0,56,0.00,CLR,,0.02,WeatherDisplay:10.37,2013-01-20 00:27:00,
2013-01-19 19:32:00,32.0,18.1,29.95,West,272,0.0,0.0,56,0.00,CLR,,0.02,WeatherDisplay:10.37,2013-01-20 00:32:00,
2013-01-19 19:37:00,32.5,18.5,29.95,West,272,0.0,0.0,56,0.00,CLR,,0.02,WeatherDisplay:10.37,2013-01-20 00:37:00,
2013-01-19 19:43:00,32.1,18.2,29.95,West,272,0.0,0.0,56,0.00,CLR,,0.02,WeatherDisplay:10.37,2013-01-20 00:43:00,
2013-01-19 19:48:00,32.2,18.2,29.95,West,272,0.0,0.0,56,0.00,CLR,,0.02,WeatherDisplay:10.37,2013-01-20 00:48:00,
2013-01-19 19:53:00,33.1,19.1,29.95,West,272,0.0,0.0,56,0.00,CLR,,0.02,WeatherDisplay:10.37,2013-01-20 00:53:00,
2013-01-19 19:58:00,33.4,19.4,29.95,West,272,0.0,0.0,56,0.00,CLR,,0.02,WeatherDisplay:10.37,2013-01-20 00:58:00,
2013-01-19 20:04:00,31.0,19.1,29.94,West,272,0.0,0.0,61,0.00,CLR,,0.02,WeatherDisplay:10.37,2013-01-20 01:04:00,
2013-01-19 20:09:00,31.7,19.8,29.94,West,272,0.0,0.0,61,0.00,CLR,,0.02,WeatherDisplay:10.37,2013-01-20 01:09:00,
2013-01-19 20:14:00,32.2,20.2,29.94,West,272,0.0,0.0,61,0.00,CLR,,0.02,WeatherDisplay:10.37,2013-01-20 01:14:00,
2013-01-19 20:19:00,32.1,20.2,29.94,West,272,0.0,0.0,61,0.00,CLR,,0.02,WeatherDisplay:10.37,2013-01-20 01:19:00,
2013-01-19 20:24:00,32.5,20.5,29.94,West,272,0.0,0.0,61,0.00,CLR,,0.02,WeatherDisplay:10.37,2013-01-20 01:24:00,
2013-01-19 20:29:00,32.9,20.9,29.94,West,272,0.0,0.0,61,0.00,CLR,,0.02,WeatherDisplay:10.37,2013-01-20 01:29:00,
2013-01-19 20:34:00,32.8,20.8,29.94,West,272,0.0,0.0,61,0.00,CLR,,0.02,WeatherDisplay:10.37,2013-01-20 01:34:00,
2013-01-19 20:39:00,31.1,19.2,29.94,West,272,0.0,0.0,61,0.00,CLR,,0.02,WeatherDisplay:10.37,2013-01-20 01:39:00,
2013-01-19 20:44:00,31.1,19.2,29.94,West,272,0.0,0.0,61,0.00,CLR,,0.02,WeatherDisplay:10.37,2013-01-20 01:44:00,
2013-01-19 20:49:00,31.4,19.5,29.94,West,272,0.0,0.0,61,0.00,CLR,,0.02,WeatherDisplay:10.37,2013-01-20 01:49:00,
2013-01-19 20:54:00,31.7,19.8,29.94,West,272,0.0,0.0,61,0.00,CLR,,0.02,WeatherDisplay:10.37,2013-01-20 01:54:00,
2013-01-19 20:59:00,31.8,19.9,29.94,West,272,0.0,0.0,61,0.00,CLR,,0.02,WeatherDisplay:10.37,2013-01-20 01:59:00,
2013-01-19 21:05:00,32.4,20.4,29.93,West,272,0.0,0.0,61,0.00,CLR,,0.02,WeatherDisplay:10.37,2013-01-20 02:05:00,
2013-01-19 21:10:00,32.5,20.5,29.93,West,272,0.0,0.0,61,0.00,CLR,,0.02,WeatherDisplay:10.37,2013-01-20 02:10:00,
2013-01-19 21:15:00,32.7,20.7,29.93,West,272,0.0,0.0,61,0.00,CLR,,0.02,WeatherDisplay:10.37,2013-01-20 02:15:00,
2013-01-19 21:20:00,32.1,20.2,29.93,West,272,0.0,0.0,61,0.00,CLR,,0.02,WeatherDisplay:10.37,2013-01-20 02:20:00,
2013-01-19 21:25:00,31.4,19.5,29.93,West,272,0.0,0.0,61,0.00,CLR,,0.02,WeatherDisplay:10.37,2013-01-20 02:25:00,
2013-01-19 21:30:00,31.4,19.5,29.93,West,272,0.0,0.0,61,0.00,CLR,,0.02,WeatherDisplay:10.37,2013-01-20 02:30:00,
2013-01-19 21:35:00,31.9,20.0,29.93,West,272,0.0,0.0,61,0.00,CLR,,0.02,WeatherDisplay:10.37,2013-01-20 02:35:00,
2013-01-19 21:40:00,32.1,20.2,29.93,West,272,0.0,0.0,61,0.00,CLR,,0.02,WeatherDisplay:10.37,2013-01-20 02:40:00,
2013-01-19 21:47:00,31.7,19.8,29.93,West,272,0.0,0.0,61,0.00,CLR,,0.02,WeatherDisplay:10.37,2013-01-20 02:47:00,
2013-01-19 21:52:00,30.9,19.0,29.93,West,272,0.0,0.0,61,0.00,CLR,,0.02,WeatherDisplay:10.37,2013-01-20 02:52:00,
2013-01-19 21:57:00,30.7,18.8,29.93,West,272,0.0,0.0,61,0.00,CLR,,0.02,WeatherDisplay:10.37,2013-01-20 02:57:00,
2013-01-19 22:02:00,30.0,20.0,29.90,West,272,0.0,0.0,66,0.00,CLR,,0.02,WeatherDisplay:10.37,2013-01-20 03:02:00,
2013-01-19 22:08:00,30.2,20.2,29.90,West,272,0.0,0.0,66,0.00,CLR,,0.02,WeatherDisplay:10.37,2013-01-20 03:08:00,
2013-01-19 22:13:00,30.5,20.5,29.90,West,272,0.0,0.0,66,0.00,CLR,,0.02,WeatherDisplay:10.37,2013-01-20 03:13:00,
2013-01-19 22:19:00,31.1,21.1,29.90,West,272,0.0,0.0,66,0.00,CLR,,0.02,WeatherDisplay:10.37,2013-01-20 03:19:00,
2013-01-19 22:24:00,30.8,20.8,29.90,West,272,0.0,0.0,66,0.00,CLR,,0.02,WeatherDisplay:10.37,2013-01-20 03:24:00,
2013-01-19 22:29:00,31.0,21.0,29.90,West,272,0.0,0.0,66,0.00,CLR,,0.02,WeatherDisplay:10.37,2013-01-20 03:29:00,
2013-01-19 22:34:00,30.9,20.9,29.90,West,272,0.0,0.0,66,0.00,CLR,,0.02,WeatherDisplay:10.37,2013-01-20 03:34:00,
2013-01-19 22:39:00,30.7,20.7,29.90,West,272,0.0,0.0,66,0.00,CLR,,0.02,WeatherDisplay:10.37,2013-01-20 03:39:00,
2013-01-19 22:44:00,30.6,20.6,29.90,West,272,0.0,0.0,66,0.00,CLR,,0.02,WeatherDisplay:10.37,2013-01-20 03:44:00,
2013-01-19 22:49:00,30.5,20.5,29.90,West,272,0.0,0.0,66,0.00,CLR,,0.02,WeatherDisplay:10.37,2013-01-20 03:49:00,
2013-01-19 22:54:00,30.2,20.2,29.90,West,272,0.0,0.0,66,0.00,CLR,,0.02,WeatherDisplay:10.37,2013-01-20 03:54:00,
2013-01-19 22:59:00,30.3,20.3,29.90,West,272,0.0,0.0,66,0.00,CLR,,0.02,WeatherDisplay:10.37,2013-01-20 03:59:00,
2013-01-19 23:05:00,30.4,20.4,29.90,West,272,0.0,0.0,66,0.00,CLR,,0.02,WeatherDisplay:10.37,2013-01-20 04:05:00,
2013-01-19 23:10:00,30.8,20.8,29.90,West,272,0.0,0.0,66,0.00,CLR,,0.02,WeatherDisplay:10.37,2013-01-20 04:10:00,
2013-01-19 23:15:00,30.5,19.4,29.86,West,272,0.0,0.0,63,0.00,FEW,,0.02,WeatherDisplay:10.37,2013-01-20 04:15:00,
2013-01-19 23:20:00,30.7,19.6,29.86,West,272,0.0,0.0,63,0.00,FEW,,0.02,WeatherDisplay:10.37,2013-01-20 04:20:00,
2013-01-19 23:25:00,30.8,19.7,29.86,West,272,0.0,0.0,63,0.00,FEW,,0.02,WeatherDisplay:10.37,2013-01-20 04:25:00,
2013-01-19 23:31:00,30.5,19.4,29.86,West,272,0.0,0.0,63,0.00,FEW,,0.02,WeatherDisplay:10.37,2013-01-20 04:31:00,
2013-01-19 23:36:00,30.0,18.9,29.86,West,272,0.0,0.0,63,0.00,FEW,,0.02,WeatherDisplay:10.37,2013-01-20 04:36:00,
2013-01-19 23:41:00,30.7,19.6,29.86,West,272,0.0,0.0,63,0.00,FEW,,0.02,WeatherDisplay:10.37,2013-01-20 04:41:00,
2013-01-19 23:46:00,31.1,20.0,29.86,West,272,0.0,0.0,63,0.00,FEW,,0.02,WeatherDisplay:10.37,2013-01-20 04:46:00,
2013-01-19 23:51:00,31.5,20.3,29.86,West,272,0.0,0.0,63,0.00,FEW,,0.02,WeatherDisplay:10.37,2013-01-20 04:51:00,
2013-01-19 23:57:00,31.7,20.5,29.86,West,271,0.0,0.0,63,0.00,FEW,,0.02,WeatherDisplay:10.37,2013-01-20 04:57:00,